Currie, Australia
Current Conditions -  °F | °C
As of 8:30 PM on Monday 20 Oct 2014 (Local Time) from YMAV Reporting Station
Clear Clear  
Wind Chill: 57°   Ceiling: Unl
Heat Index: 57°   Visibility: 6mi
Dew Point: 48°   Wind: 15mph
Humidity: 72%   Direction: 150°SSE
Pressure: 30.36"   Gusts: NA
Location:  39.93°S, 143.85°E
Report Text: YMAV 200930Z AUTO 15013KT 9999 // NCD 14/09 Q1028
Loading
Personal Weather Stations






























Interactive Weather Map
Tropical Storm Tracking
New forecast layout! Learn more

10-Day Weather Forecast

Advertisements
Track Severe Weather on mobile